createdAt,value
2022-11-15T00:01:58.084Z,45.7
2022-11-15T00:07:05.034Z,45.6
2022-11-15T00:12:53.957Z,45.6
2022-11-15T00:18:16.268Z,45.6
2022-11-15T00:23:54.728Z,45.6
2022-11-15T00:29:17.229Z,45.5
2022-11-15T00:34:57.055Z,45.4
2022-11-15T00:40:33.879Z,45.4
2022-11-15T00:46:13.377Z,45.4
2022-11-15T00:51:21.301Z,45.3
2022-11-15T00:56:58.891Z,45.3
2022-11-15T01:02:36.457Z,45.3
2022-11-15T01:08:00.423Z,45.2
2022-11-15T01:13:37.618Z,45.1
2022-11-15T01:19:15.280Z,45.1
2022-11-15T01:24:53.692Z,45.1
2022-11-15T01:30:30.973Z,45
2022-11-15T01:36:08.899Z,45
2022-11-15T01:41:45.893Z,44.9
2022-11-15T01:47:07.550Z,44.9
2022-11-15T01:52:45.267Z,44.8
2022-11-15T01:58:23.015Z,44.8
2022-11-15T02:03:45.527Z,44.8
2022-11-15T02:08:52.512Z,44.7
2022-11-15T02:14:13.878Z,44.7
2022-11-15T02:19:50.547Z,44.6
2022-11-15T02:25:12.373Z,44.6
2022-11-15T02:30:34.373Z,44.1
2022-11-15T02:36:11.059Z,44.5
2022-11-15T02:41:32.526Z,45.3
2022-11-15T02:47:09.984Z,46.4
2022-11-15T02:52:16.330Z,47.4
2022-11-15T02:57:37.642Z,48.4
2022-11-15T03:03:15.435Z,49.5
2022-11-15T03:08:37.939Z,50.5
2022-11-15T03:13:59.648Z,51.6
2022-11-15T03:19:06.077Z,52.6
2022-11-15T03:24:26.945Z,53.8
2022-11-15T03:29:48.339Z,54.8
2022-11-15T03:35:13.569Z,55.3
2022-11-15T03:40:40.890Z,55.4
2022-11-15T03:46:17.889Z,55.4
2022-11-15T03:51:54.904Z,55.3
2022-11-15T03:57:32.228Z,55.3
2022-11-15T04:02:23.534Z,55.3
2022-11-15T04:08:02.473Z,55.3
2022-11-15T04:13:08.118Z,55.3
2022-11-15T04:18:29.815Z,55.3
2022-11-15T04:24:08.190Z,55.2
2022-11-15T04:29:35.480Z,55.2
2022-11-15T04:35:13.500Z,55.1
2022-11-15T04:40:55.926Z,55.1
2022-11-15T04:46:32.332Z,55.1
2022-11-15T04:51:54.509Z,55.1
2022-11-15T04:57:32.398Z,55
2022-11-15T05:03:05.528Z,55
2022-11-15T05:08:27.957Z,54.9
2022-11-15T05:14:05.960Z,54.9
2022-11-15T05:19:29.622Z,54.9
2022-11-15T05:24:52.095Z,54.8
2022-11-15T05:30:30.092Z,54.8
2022-11-15T05:35:51.968Z,54.8
2022-11-15T05:41:29.167Z,54.8
2022-11-15T05:46:51.172Z,54.7
2022-11-15T05:52:27.473Z,54.7
2022-11-15T05:57:54.314Z,54.6
2022-11-15T06:03:17.300Z,54.6
2022-11-15T06:08:39.965Z,54.6
2022-11-15T06:14:17.623Z,54.6
2022-11-15T06:19:45.856Z,54.5
2022-11-15T06:25:22.451Z,54.4
2022-11-15T06:30:59.657Z,54.4
2022-11-15T06:36:21.913Z,54.4
2022-11-15T06:41:58.599Z,54.4
2022-11-15T06:47:36.283Z,54.3
2022-11-15T06:53:13.463Z,54.3
2022-11-15T06:58:50.803Z,54.3
2022-11-15T07:04:29.175Z,54.2
2022-11-15T07:10:06.550Z,54.2
2022-11-15T07:15:49.393Z,54.1
2022-11-15T07:21:11.241Z,54.1
2022-11-15T07:26:34.635Z,54.1
2022-11-15T07:31:57.735Z,54
2022-11-15T07:37:35.306Z,54
2022-11-15T07:43:12.986Z,53.9
2022-11-15T07:49:01.065Z,53.9
2022-11-15T07:54:23.831Z,53.9
2022-11-15T07:59:46.602Z,53.8
2022-11-15T08:05:25.409Z,53.8
2022-11-15T08:11:03.663Z,53.8
2022-11-15T08:16:47.057Z,53.7
2022-11-15T08:22:24.518Z,53.7
2022-11-15T08:28:03.683Z,53.6
2022-11-15T08:33:41.172Z,53.6
2022-11-15T08:39:33.526Z,53.6
2022-11-15T08:45:12.661Z,53.5
2022-11-15T08:50:50.814Z,53.5
2022-11-15T08:56:30.855Z,53.4
2022-11-15T09:02:08.871Z,53.4
2022-11-15T09:07:49.763Z,53.4
2022-11-15T09:13:58.770Z,53.3
2022-11-15T09:19:44.444Z,53.3
2022-11-15T09:25:26.543Z,53.3
2022-11-15T09:31:38.804Z,53.3
2022-11-15T09:37:16.671Z,53.2
2022-11-15T09:43:00.634Z,53.1
2022-11-15T09:48:40.342Z,53.1
2022-11-15T09:55:25.095Z,53.1
2022-11-15T10:01:18.997Z,53
2022-11-15T10:07:02.150Z,53
2022-11-15T10:13:04.231Z,52.9
2022-11-15T10:18:42.025Z,52.9
2022-11-15T10:24:20.687Z,52.9
2022-11-15T10:29:47.821Z,52.8
2022-11-15T10:35:27.790Z,52.8
2022-11-15T10:42:45.885Z,52.8
2022-11-15T10:49:02.709Z,52.7
2022-11-15T10:54:45.317Z,52.7
2022-11-15T11:00:28.104Z,52.6
2022-11-15T11:06:12.915Z,52.6
2022-11-15T11:12:25.935Z,52.6
2022-11-15T11:18:03.725Z,52.5
2022-11-15T11:23:31.842Z,52.5
2022-11-15T11:29:10.301Z,52.4
2022-11-15T11:34:51.279Z,52.4
2022-11-15T11:45:51.541Z,52.3
2022-11-15T11:51:29.737Z,52.3
2022-11-15T11:57:08.642Z,52.3
2022-11-15T12:02:52.734Z,52.3
2022-11-15T12:08:35.938Z,52.2
2022-11-15T12:14:14.070Z,52.1
2022-11-15T12:19:51.858Z,52.1
2022-11-15T12:25:28.844Z,52.1
2022-11-15T12:31:20.489Z,52.1
2022-11-15T12:36:58.263Z,52
2022-11-15T12:52:37.138Z,51.9
2022-11-15T12:58:14.556Z,51.9
2022-11-15T13:03:53.616Z,51.8
2022-11-15T13:09:30.282Z,51.8
2022-11-15T13:15:11.757Z,51.8
2022-11-15T13:20:49.729Z,51.7
2022-11-15T13:26:11.833Z,51.7
2022-11-15T13:31:33.547Z,51.6
2022-11-15T13:37:44.406Z,51.6
2022-11-15T13:43:22.651Z,51.6
2022-11-15T13:49:02.118Z,51.5
2022-11-15T13:54:43.839Z,51.5
2022-11-15T14:00:21.910Z,51.4
2022-11-15T14:05:59.292Z,51.4
2022-11-15T14:11:43.179Z,51.4
2022-11-15T14:17:05.373Z,51.3
2022-11-15T14:22:27.705Z,51.3
2022-11-15T14:27:53.325Z,51.3
2022-11-15T14:33:14.826Z,51.3
2022-11-15T14:38:52.242Z,51.2
2022-11-15T14:43:59.595Z,51.2
2022-11-15T14:49:22.103Z,51.1
2022-11-15T14:54:50.400Z,51.1
2022-11-15T15:00:13.324Z,51.1
2022-11-15T15:05:41.006Z,51.1
2022-11-15T15:11:28.886Z,51
2022-11-15T15:16:55.308Z,50.9
2022-11-15T15:22:27.068Z,50.9
2022-11-15T15:27:34.182Z,50.9
2022-11-15T15:32:57.314Z,50.9
2022-11-15T15:38:19.218Z,50.8
2022-11-15T15:43:43.657Z,50.8
2022-11-15T15:49:06.697Z,50.8
2022-11-15T15:54:36.811Z,50.7
2022-11-15T15:59:31.400Z,50.7
2022-11-15T16:04:38.854Z,50.7
2022-11-15T16:10:15.225Z,50.6
2022-11-15T16:15:37.484Z,50.6
2022-11-15T16:21:00.435Z,50.6
2022-11-15T16:26:22.809Z,50.5
2022-11-15T16:31:47.333Z,50.4
2022-11-15T16:37:20.978Z,50.4
2022-11-15T16:42:27.546Z,50.4
2022-11-15T16:47:54.323Z,50.4
2022-11-15T16:53:17.146Z,50.4
2022-11-15T16:58:38.713Z,50.3
2022-11-15T17:03:46.075Z,50.3
2022-11-15T17:09:13.076Z,50.3
2022-11-15T17:14:19.390Z,50.2
2022-11-15T17:19:41.899Z,50.2
2022-11-15T17:25:04.120Z,50.1
2022-11-15T17:30:31.120Z,50.1
2022-11-15T17:35:37.815Z,50.1
2022-11-15T17:41:15.944Z,50.1
2022-11-15T17:46:38.498Z,50
2022-11-15T17:52:06.308Z,49.9
2022-11-15T17:57:44.386Z,49.9
2022-11-15T18:03:13.817Z,49.9
2022-11-15T18:08:53.571Z,49.8
2022-11-15T18:14:15.914Z,49.8
2022-11-15T18:19:58.196Z,49.8
2022-11-15T18:25:36.144Z,49.8
2022-11-15T18:31:15.759Z,49.7
2022-11-15T18:36:23.749Z,49.7
2022-11-15T18:42:06.285Z,49.6
2022-11-15T18:47:29.281Z,49.6
2022-11-15T18:52:52.098Z,49.6
2022-11-15T18:58:29.856Z,49.6
2022-11-15T19:04:12.960Z,49.5
2022-11-15T19:09:55.473Z,49.5
2022-11-15T19:15:32.295Z,49.4
2022-11-15T19:21:14.701Z,49.4
2022-11-15T19:26:52.274Z,49.4
2022-11-15T19:32:30.272Z,49.3
2022-11-15T19:38:13.711Z,49.3
2022-11-15T19:43:55.952Z,49.2
2022-11-15T19:49:25.033Z,49.2
2022-11-15T19:54:50.330Z,49.1
2022-11-15T20:00:28.058Z,49.1
2022-11-15T20:05:52.615Z,49.1
2022-11-15T20:11:14.620Z,49.1
2022-11-15T20:16:54.360Z,49
2022-11-15T20:22:33.473Z,49
2022-11-15T20:28:11.543Z,48.9
2022-11-15T20:33:49.246Z,48.9
2022-11-15T20:39:12.019Z,49.5
2022-11-15T20:44:55.115Z,50.4
2022-11-15T20:51:08.462Z,51.5
2022-11-15T20:56:30.732Z,52.7
2022-11-15T21:01:54.635Z,53.8
2022-11-15T21:07:38.610Z,54.9
2022-11-15T21:13:00.676Z,55.8
2022-11-15T21:18:40.981Z,55.9
2022-11-15T21:24:09.004Z,55.9
2022-11-15T21:29:46.934Z,55.9
2022-11-15T21:35:30.608Z,55.9
2022-11-15T21:40:53.803Z,55.9
2022-11-15T21:46:31.704Z,55.8
2022-11-15T21:51:59.475Z,55.8
2022-11-15T21:56:50.496Z,55.8
2022-11-15T22:02:13.607Z,55.8
2022-11-15T22:07:56.894Z,55.7
2022-11-15T22:13:20.501Z,55.6
2022-11-15T22:18:59.835Z,55.6
2022-11-15T22:24:51.772Z,55.6
2022-11-15T22:29:48.092Z,55.6
2022-11-15T22:35:10.260Z,55.5
2022-11-15T22:41:18.709Z,55.5
2022-11-15T22:46:55.362Z,55.4
2022-11-15T22:52:34.195Z,55.4
2022-11-15T22:58:16.531Z,55.4
2022-11-15T23:03:27.404Z,55.4
2022-11-15T23:09:05.637Z,55.3
2022-11-15T23:14:43.525Z,55.3
2022-11-15T23:20:45.285Z,55.3
2022-11-15T23:26:23.047Z,55.2
2022-11-15T23:32:02.269Z,55.2
2022-11-15T23:37:45.387Z,55.1
2022-11-15T23:43:29.482Z,55.1
2022-11-15T23:49:08.171Z,55.1
2022-11-15T23:54:44.750Z,55
